createdAt,value
2023-05-01T00:00:11.433Z,0.00
2023-05-01T00:01:11.431Z,0.00
2023-05-01T00:02:11.491Z,0.00
2023-05-01T00:03:11.480Z,0.00
2023-05-01T00:04:11.650Z,0.00
2023-05-01T00:05:11.611Z,0.00
2023-05-01T00:06:11.432Z,0.00
2023-05-01T00:07:11.323Z,0.00
2023-05-01T00:08:11.405Z,0.00
2023-05-01T00:09:11.318Z,0.00
2023-05-01T00:10:11.309Z,0.00
2023-05-01T00:11:11.289Z,0.00
2023-05-01T00:12:11.388Z,0.00
2023-05-01T00:13:11.268Z,0.00
2023-05-01T00:14:11.258Z,0.00
2023-05-01T00:15:11.236Z,0.00
2023-05-01T00:16:11.246Z,0.00
2023-05-01T00:17:11.227Z,0.00
2023-05-01T00:18:11.224Z,0.00
2023-05-01T00:19:11.204Z,0.00
2023-05-01T00:20:11.177Z,0.00
2023-05-01T00:21:11.185Z,0.00
2023-05-01T00:22:11.162Z,0.00
2023-05-01T00:23:11.140Z,0.00
2023-05-01T00:24:11.133Z,0.00
2023-05-01T00:25:11.135Z,0.00
2023-05-01T00:26:11.106Z,0.00
2023-05-01T00:27:11.124Z,0.00
2023-05-01T00:28:11.129Z,0.00
2023-05-01T00:29:11.087Z,0.00
2023-05-01T00:30:11.079Z,0.00
2023-05-01T00:31:11.057Z,0.00
2023-05-01T00:32:11.336Z,0.00
2023-05-01T00:33:11.064Z,0.00
2023-05-01T00:34:11.020Z,0.00
2023-05-01T00:35:11.053Z,0.00
2023-05-01T00:36:11.023Z,0.00
2023-05-01T00:37:10.999Z,0.00
2023-05-01T00:38:10.975Z,0.00
2023-05-01T00:39:10.965Z,0.00
2023-05-01T00:40:10.973Z,0.00
2023-05-01T00:41:10.941Z,0.00
2023-05-01T00:42:10.958Z,0.00
2023-05-01T00:43:10.941Z,0.00
2023-05-01T00:44:10.959Z,0.00
2023-05-01T00:45:10.895Z,0.00
2023-05-01T00:46:10.936Z,0.00
2023-05-01T00:47:10.894Z,0.00
2023-05-01T00:48:11.129Z,0.00
2023-05-01T00:49:10.858Z,0.00
2023-05-01T00:50:10.853Z,0.00
2023-05-01T00:51:10.844Z,0.00
2023-05-01T00:52:10.833Z,0.00
2023-05-01T00:53:10.838Z,0.00
2023-05-01T00:54:11.109Z,0.00
2023-05-01T00:55:10.828Z,0.00
2023-05-01T00:56:10.791Z,0.00
2023-05-01T00:57:10.778Z,0.00
2023-05-01T00:58:10.769Z,0.00
2023-05-01T00:59:10.762Z,0.00
2023-05-01T01:00:10.792Z,0.00
2023-05-01T01:01:10.767Z,0.00
2023-05-01T01:02:10.715Z,0.00
2023-05-01T01:03:10.742Z,0.00
2023-05-01T01:04:10.795Z,0.00
2023-05-01T01:05:10.680Z,0.00
2023-05-01T01:06:10.720Z,0.00
2023-05-01T01:07:10.669Z,0.00
2023-05-01T01:08:10.645Z,0.00
2023-05-01T01:09:10.672Z,0.00
2023-05-01T01:10:10.626Z,0.00
2023-05-01T01:11:10.622Z,0.00
2023-05-01T01:12:10.675Z,0.00
2023-05-01T01:13:10.597Z,0.00
2023-05-01T01:14:10.578Z,0.00
2023-05-01T01:15:10.563Z,0.00
2023-05-01T01:16:10.598Z,0.00
2023-05-01T01:17:10.748Z,0.00
2023-05-01T01:18:10.554Z,0.00
2023-05-01T01:19:10.536Z,0.00
2023-05-01T01:20:10.514Z,0.00
2023-05-01T01:21:10.521Z,0.00
2023-05-01T01:22:10.488Z,0.00
2023-05-01T01:23:10.478Z,0.00
2023-05-01T01:24:10.461Z,0.00
2023-05-01T01:25:10.455Z,0.00
2023-05-01T01:26:10.475Z,0.00
2023-05-01T01:27:10.430Z,0.00
2023-05-01T01:28:10.428Z,0.00
2023-05-01T01:29:10.425Z,0.00
2023-05-01T01:30:10.412Z,0.00
2023-05-01T01:31:10.478Z,0.00
2023-05-01T01:32:10.453Z,0.00
2023-05-01T01:33:10.507Z,0.00
2023-05-01T01:34:10.363Z,0.00
2023-05-01T01:35:10.356Z,0.00
2023-05-01T01:36:10.334Z,0.00
2023-05-01T01:37:10.321Z,0.00
2023-05-01T01:38:10.316Z,0.00
2023-05-01T01:39:10.299Z,0.00
2023-05-01T01:40:10.288Z,0.00
2023-05-01T01:41:10.292Z,0.00
2023-05-01T01:42:10.304Z,0.00
2023-05-01T01:43:10.257Z,0.00
2023-05-01T01:44:10.263Z,0.00
2023-05-01T01:45:10.248Z,0.00
2023-05-01T01:46:10.292Z,0.00
2023-05-01T01:47:10.239Z,0.00
2023-05-01T01:48:10.288Z,0.00
2023-05-01T01:49:10.193Z,0.00
2023-05-01T01:50:10.182Z,0.00
2023-05-01T01:51:10.168Z,0.00
2023-05-01T01:52:10.159Z,0.00
2023-05-01T01:53:10.148Z,0.00
2023-05-01T01:54:10.156Z,0.00
2023-05-01T01:55:10.135Z,0.00
2023-05-01T01:56:10.114Z,0.00
2023-05-01T01:57:10.118Z,0.00
2023-05-01T01:58:10.115Z,0.00
2023-05-01T01:59:10.096Z,0.00
2023-05-01T02:00:10.101Z,0.00
2023-05-01T02:01:10.095Z,0.00
2023-05-01T02:02:10.096Z,0.00
2023-05-01T02:03:10.169Z,0.00
2023-05-01T02:04:10.234Z,0.00
2023-05-01T02:05:10.004Z,0.00
2023-05-01T02:06:10.036Z,0.00
2023-05-01T02:07:10.005Z,0.00
2023-05-01T02:08:09.979Z,0.00
2023-05-01T02:09:09.978Z,0.00
2023-05-01T02:10:09.965Z,0.00
2023-05-01T02:11:09.942Z,0.00
2023-05-01T02:12:09.942Z,0.00
2023-05-01T02:13:09.936Z,0.00
2023-05-01T02:14:09.923Z,0.00
2023-05-01T02:15:09.916Z,0.00
2023-05-01T02:16:09.953Z,0.00
2023-05-01T02:17:09.905Z,0.00
2023-05-01T02:18:09.950Z,0.00
2023-05-01T02:19:09.867Z,0.00
2023-05-01T02:20:09.886Z,0.00
2023-05-01T02:21:09.856Z,0.00
2023-05-01T02:22:09.829Z,0.00
2023-05-01T02:23:09.830Z,0.00
2023-05-01T02:24:09.799Z,0.00
2023-05-01T02:25:09.800Z,0.00
2023-05-01T02:26:09.786Z,0.00
2023-05-01T02:27:09.770Z,0.00
2023-05-01T02:28:09.772Z,0.00
2023-05-01T02:29:09.775Z,0.00
2023-05-01T02:30:09.756Z,0.00
2023-05-01T02:31:09.762Z,0.00
2023-05-01T02:32:09.740Z,0.00
2023-05-01T02:33:09.919Z,0.00
2023-05-01T02:34:09.694Z,0.00
2023-05-01T02:35:09.689Z,0.00
2023-05-01T02:36:09.691Z,0.00
2023-05-01T02:37:09.685Z,0.00
2023-05-01T02:38:09.652Z,0.00
2023-05-01T02:39:09.652Z,0.00
2023-05-01T02:40:09.625Z,0.00
2023-05-01T02:41:09.638Z,0.00
2023-05-01T02:42:09.608Z,0.00
2023-05-01T02:43:09.603Z,0.00
2023-05-01T02:44:09.581Z,0.00
2023-05-01T02:45:09.587Z,0.00
2023-05-01T02:46:09.647Z,0.00
2023-05-01T02:47:09.597Z,0.00
2023-05-01T02:48:09.666Z,0.00
2023-05-01T02:49:09.552Z,0.00
2023-05-01T02:50:09.525Z,0.00
2023-05-01T02:51:09.504Z,0.00
2023-05-01T02:52:09.532Z,0.00
2023-05-01T02:53:09.487Z,0.00
2023-05-01T02:54:09.491Z,0.00
2023-05-01T02:55:09.496Z,0.00
2023-05-01T02:56:09.479Z,0.00
2023-05-01T02:57:09.450Z,0.00
2023-05-01T02:58:09.445Z,0.00
2023-05-01T02:59:09.418Z,0.00
2023-05-01T03:00:09.465Z,0.00
2023-05-01T03:01:09.437Z,0.00
2023-05-01T03:02:09.384Z,0.00
2023-05-01T03:03:09.435Z,0.00
2023-05-01T03:04:09.434Z,0.00
2023-05-01T03:05:09.354Z,0.00
2023-05-01T03:06:09.343Z,0.00
2023-05-01T03:07:09.339Z,0.00
2023-05-01T03:08:09.346Z,0.00
2023-05-01T03:09:09.301Z,0.00
2023-05-01T03:10:09.296Z,0.00
2023-05-01T03:11:09.310Z,0.00
2023-05-01T03:12:09.286Z,0.00
2023-05-01T03:13:09.609Z,0.00
2023-05-01T03:14:09.248Z,0.00
2023-05-01T03:15:09.254Z,0.00
2023-05-01T03:16:09.294Z,0.00
2023-05-01T03:17:09.245Z,0.00
2023-05-01T03:18:09.343Z,0.00
2023-05-01T03:19:09.206Z,0.00
2023-05-01T03:20:09.209Z,0.00
2023-05-01T03:21:09.196Z,0.00
2023-05-01T03:22:09.172Z,0.00
2023-05-01T03:23:09.163Z,0.00
2023-05-01T03:24:09.173Z,0.00
2023-05-01T03:25:09.128Z,0.00
2023-05-01T03:26:09.135Z,0.00
2023-05-01T03:27:09.107Z,0.00
2023-05-01T03:28:09.105Z,0.00
2023-05-01T03:29:09.080Z,0.00
2023-05-01T03:30:09.079Z,0.00
2023-05-01T03:31:09.068Z,0.00
2023-05-01T03:32:09.122Z,0.00
2023-05-01T03:33:09.108Z,0.00
2023-05-01T03:34:09.044Z,0.00
2023-05-01T03:35:09.073Z,0.00
2023-05-01T03:36:09.020Z,0.00
2023-05-01T03:37:08.989Z,4.00
2023-05-01T03:38:09.002Z,4.00
2023-05-01T03:39:09.068Z,4.00
2023-05-01T03:40:08.985Z,4.00
2023-05-01T03:41:08.961Z,4.00
2023-05-01T03:42:08.929Z,4.00
2023-05-01T03:43:08.974Z,4.00
2023-05-01T03:44:08.950Z,8.00
2023-05-01T03:45:08.921Z,8.00
2023-05-01T03:46:08.966Z,8.00
2023-05-01T03:47:08.877Z,12.00
2023-05-01T03:48:08.918Z,12.00
2023-05-01T03:49:08.888Z,12.00
2023-05-01T03:50:08.852Z,20.00
2023-05-01T03:51:08.829Z,20.00
2023-05-01T03:52:08.831Z,24.00
2023-05-01T03:53:08.820Z,24.00
2023-05-01T03:54:08.801Z,28.00
2023-05-01T03:55:08.798Z,36.00
2023-05-01T03:56:08.829Z,36.00
2023-05-01T03:57:08.778Z,44.00
2023-05-01T03:58:08.773Z,48.00
2023-05-01T03:59:08.762Z,52.00
2023-05-01T04:00:08.748Z,60.00
2023-05-01T04:01:08.737Z,68.00
2023-05-01T04:02:08.799Z,72.00
2023-05-01T04:03:08.794Z,80.00
2023-05-01T04:04:08.833Z,88.00
2023-05-01T04:05:08.696Z,96.00
2023-05-01T04:06:08.728Z,104.00
2023-05-01T04:07:08.687Z,116.00
2023-05-01T04:08:08.682Z,124.00
2023-05-01T04:09:08.634Z,132.00
2023-05-01T04:10:08.630Z,140.00
2023-05-01T04:11:08.630Z,156.00
2023-05-01T04:12:08.643Z,164.00
2023-05-01T04:13:08.594Z,180.00
2023-05-01T04:14:08.614Z,192.00
2023-05-01T04:15:08.585Z,208.00
2023-05-01T04:16:08.687Z,224.00
2023-05-01T04:17:08.569Z,244.00
2023-05-01T04:18:08.617Z,264.00
2023-05-01T04:19:08.528Z,284.00
2023-05-01T04:20:08.523Z,304.00
2023-05-01T04:21:08.505Z,328.00
2023-05-01T04:22:08.516Z,348.00
2023-05-01T04:23:08.479Z,368.00
2023-05-01T04:24:08.477Z,392.00
2023-05-01T04:25:08.475Z,420.00
2023-05-01T04:26:08.446Z,444.00
2023-05-01T04:27:08.452Z,472.00
2023-05-01T04:28:08.471Z,500.00
2023-05-01T04:29:08.431Z,528.00
2023-05-01T04:30:08.423Z,560.00
2023-05-01T04:31:08.451Z,588.00
2023-05-01T04:32:08.484Z,616.00
2023-05-01T04:33:08.411Z,640.00
2023-05-01T04:34:08.372Z,668.00
2023-05-01T04:35:08.350Z,696.00
2023-05-01T04:36:08.368Z,724.00
2023-05-01T04:37:08.320Z,752.00
2023-05-01T04:38:08.408Z,776.00
2023-05-01T04:39:08.301Z,804.00
2023-05-01T04:40:10.555Z,832.00
2023-05-01T04:41:08.276Z,864.00
2023-05-01T04:42:08.625Z,896.00
2023-05-01T04:43:08.256Z,928.00
2023-05-01T04:44:08.263Z,964.00
2023-05-01T04:45:08.252Z,996.00
2023-05-01T04:46:08.245Z,1032.00
2023-05-01T04:47:08.335Z,1072.00
2023-05-01T04:48:08.235Z,1104.00
2023-05-01T04:49:08.199Z,1148.00
2023-05-01T04:50:08.213Z,1184.00
2023-05-01T04:51:08.170Z,1228.00
2023-05-01T04:52:08.165Z,1268.00
2023-05-01T04:53:08.163Z,1304.00
2023-05-01T04:54:08.143Z,1340.00
2023-05-01T04:55:08.144Z,1376.00
2023-05-01T04:56:08.116Z,1412.00
2023-05-01T04:57:08.126Z,1448.00
2023-05-01T04:58:08.152Z,1488.00
2023-05-01T04:59:08.086Z,1532.00
2023-05-01T05:00:08.150Z,1572.00
2023-05-01T05:01:08.147Z,1616.00
2023-05-01T05:02:08.073Z,1660.00
2023-05-01T05:03:08.243Z,1704.00
2023-05-01T05:04:08.171Z,1748.00
2023-05-01T05:05:08.043Z,1788.00
2023-05-01T05:06:08.055Z,1836.00
2023-05-01T05:07:08.028Z,1888.00
2023-05-01T05:08:07.979Z,1940.00
2023-05-01T05:09:08.019Z,1992.00
2023-05-01T05:10:07.992Z,2044.00
2023-05-01T05:11:07.994Z,2100.00
2023-05-01T05:12:08.027Z,2156.00
2023-05-01T05:13:07.984Z,2216.00
2023-05-01T05:14:07.957Z,2276.00
2023-05-01T05:15:07.924Z,2344.00
2023-05-01T05:16:07.985Z,2408.00
2023-05-01T05:17:07.896Z,2472.00
2023-05-01T05:18:07.985Z,2540.00
2023-05-01T05:19:07.920Z,2604.00
2023-05-01T05:20:07.872Z,2668.00
2023-05-01T05:21:07.868Z,2728.00
2023-05-01T05:22:07.830Z,2776.00
2023-05-01T05:23:08.597Z,2832.00
2023-05-01T05:24:07.837Z,2880.00
2023-05-01T05:25:07.805Z,2920.00
2023-05-01T05:26:07.831Z,2956.00
2023-05-01T05:27:07.776Z,2984.00
2023-05-01T05:28:07.754Z,3020.00
2023-05-01T05:29:07.789Z,3060.00
2023-05-01T05:30:07.801Z,3104.00
2023-05-01T05:31:07.744Z,3152.00
2023-05-01T05:32:07.800Z,3204.00
2023-05-01T05:33:07.838Z,3248.00
2023-05-01T05:34:07.722Z,3288.00
2023-05-01T05:35:07.721Z,3320.00
2023-05-01T05:36:07.673Z,3344.00
2023-05-01T05:37:07.663Z,3364.00
2023-05-01T05:38:07.684Z,3372.00
2023-05-01T05:39:07.656Z,3372.00
2023-05-01T05:40:07.658Z,3368.00
2023-05-01T05:41:07.649Z,3364.00
2023-05-01T05:42:07.606Z,3372.00
2023-05-01T05:43:07.652Z,3388.00
2023-05-01T05:44:07.627Z,3416.00
2023-05-01T05:45:07.586Z,3456.00
2023-05-01T05:46:07.660Z,3496.00
2023-05-01T05:47:07.594Z,3528.00
2023-05-01T05:48:07.618Z,3560.00
2023-05-01T05:49:07.544Z,3592.00
2023-05-01T05:50:07.533Z,3624.00
2023-05-01T05:51:07.498Z,3668.00
2023-05-01T05:52:07.500Z,3704.00
2023-05-01T05:53:07.509Z,3740.00
2023-05-01T05:54:07.469Z,3760.00
2023-05-01T05:55:07.460Z,3776.00
2023-05-01T05:56:07.478Z,3780.00
2023-05-01T05:57:07.432Z,3776.00
2023-05-01T05:58:07.447Z,3776.00
2023-05-01T05:59:07.442Z,3788.00
2023-05-01T06:00:07.467Z,3800.00
2023-05-01T06:01:07.405Z,3812.00
2023-05-01T06:02:07.456Z,3812.00
2023-05-01T06:03:07.522Z,3812.00
2023-05-01T06:04:07.404Z,3812.00
2023-05-01T06:05:07.389Z,3824.00
2023-05-01T06:06:07.452Z,3856.00
2023-05-01T06:07:07.324Z,3912.00
2023-05-01T06:08:07.326Z,3972.00
2023-05-01T06:09:07.396Z,4052.00
2023-05-01T06:10:07.310Z,4152.00
2023-05-01T06:11:07.335Z,4268.00
2023-05-01T06:12:07.322Z,4396.00
2023-05-01T06:13:14.126Z,4536.00
2023-05-01T06:14:08.280Z,4664.00
2023-05-01T06:15:07.236Z,4792.00
2023-05-01T06:16:07.300Z,4900.00
2023-05-01T06:17:07.242Z,5008.00
2023-05-01T06:18:07.240Z,5116.00
2023-05-01T06:19:07.206Z,5232.00
2023-05-01T06:20:07.224Z,5356.00
2023-05-01T06:21:07.211Z,5488.00
2023-05-01T06:22:07.194Z,5624.00
2023-05-01T06:23:07.186Z,5752.00
2023-05-01T06:24:07.149Z,5844.00
2023-05-01T06:25:07.125Z,5876.00
2023-05-01T06:26:07.160Z,5860.00
2023-05-01T06:27:07.131Z,5796.00
2023-05-01T06:28:07.148Z,5708.00
2023-05-01T06:29:07.070Z,5632.00
2023-05-01T06:30:07.071Z,5580.00
2023-05-01T06:31:07.092Z,5528.00
2023-05-01T06:32:07.054Z,5496.00
2023-05-01T06:33:07.095Z,5460.00
2023-05-01T06:34:07.088Z,5432.00
2023-05-01T06:35:07.055Z,5420.00
2023-05-01T06:36:07.058Z,5404.00
2023-05-01T06:37:07.102Z,5396.00
2023-05-01T06:38:06.971Z,5388.00
2023-05-01T06:39:06.967Z,5396.00
2023-05-01T06:40:06.963Z,5396.00
2023-05-01T06:41:06.964Z,5404.00
2023-05-01T06:42:06.935Z,5420.00
2023-05-01T06:43:06.941Z,5440.00
2023-05-01T06:44:06.895Z,5472.00
2023-05-01T06:45:06.888Z,5512.00
2023-05-01T06:46:06.906Z,5548.00
2023-05-01T06:47:06.933Z,5564.00
2023-05-01T06:48:06.923Z,5628.00
2023-05-01T06:49:06.851Z,5680.00
2023-05-01T06:50:06.833Z,5756.00
2023-05-01T06:51:06.838Z,5852.00
2023-05-01T06:52:06.855Z,5968.00
2023-05-01T06:53:06.837Z,6088.00
2023-05-01T06:54:06.809Z,6200.00
2023-05-01T06:55:06.822Z,6308.00
2023-05-01T06:56:06.781Z,6360.00
2023-05-01T06:57:06.750Z,6456.00
2023-05-01T06:58:16.003Z,6512.00
2023-05-01T06:59:07.778Z,6576.00
2023-05-01T07:00:06.762Z,6644.00
2023-05-01T07:01:06.818Z,6712.00
2023-05-01T07:02:06.741Z,6776.00
2023-05-01T07:03:06.737Z,6836.00
2023-05-01T07:04:06.697Z,6896.00
2023-05-01T07:05:06.700Z,6980.00
2023-05-01T07:06:06.681Z,7064.00
2023-05-01T07:07:06.642Z,7144.00
2023-05-01T07:08:06.640Z,7212.00
2023-05-01T07:09:06.624Z,7260.00
2023-05-01T07:10:06.639Z,7280.00
2023-05-01T07:11:06.666Z,7272.00
2023-05-01T07:12:06.645Z,7268.00
2023-05-01T07:13:06.586Z,7244.00
2023-05-01T07:14:06.568Z,7212.00
2023-05-01T07:15:06.576Z,7168.00
2023-05-01T07:16:06.572Z,7120.00
2023-05-01T07:17:06.539Z,7084.00
2023-05-01T07:18:06.587Z,7072.00
2023-05-01T07:19:06.546Z,7084.00
2023-05-01T07:20:06.486Z,7096.00
2023-05-01T07:21:06.486Z,7116.00
2023-05-01T07:22:06.460Z,7096.00
2023-05-01T07:23:07.463Z,7048.00
2023-05-01T07:24:06.479Z,7016.00
2023-05-01T07:25:06.460Z,6968.00
2023-05-01T07:26:06.430Z,6924.00
2023-05-01T07:27:06.414Z,6896.00
2023-05-01T07:28:06.433Z,6896.00
2023-05-01T07:29:06.399Z,6916.00
2023-05-01T07:30:06.409Z,6956.00
2023-05-01T07:31:06.391Z,7004.00
2023-05-01T07:32:06.512Z,7052.00
2023-05-01T07:33:06.410Z,7112.00
2023-05-01T07:34:06.373Z,7192.00
2023-05-01T07:35:06.340Z,7276.00
2023-05-01T07:36:06.319Z,7344.00
2023-05-01T07:37:06.293Z,7396.00
2023-05-01T07:38:06.304Z,7428.00
2023-05-01T07:39:06.307Z,7436.00
2023-05-01T07:40:06.323Z,7504.00
2023-05-01T07:41:06.285Z,7560.00
2023-05-01T07:42:06.237Z,7656.00
2023-05-01T07:43:06.237Z,7788.00
2023-05-01T07:44:06.243Z,7944.00
2023-05-01T07:45:06.210Z,8088.00
2023-05-01T07:46:06.333Z,8292.00
2023-05-01T07:47:06.251Z,8476.00
2023-05-01T07:48:06.214Z,8644.00
2023-05-01T07:49:06.174Z,8788.00
2023-05-01T07:50:06.161Z,8836.00
2023-05-01T07:51:06.132Z,8984.00
2023-05-01T07:52:06.139Z,9044.00
2023-05-01T07:53:06.128Z,9096.00
2023-05-01T07:54:06.143Z,9120.00
2023-05-01T07:55:06.104Z,9132.00
2023-05-01T07:56:06.100Z,9136.00
2023-05-01T07:57:06.090Z,9136.00
2023-05-01T07:58:06.057Z,9120.00
2023-05-01T07:59:06.062Z,9096.00
2023-05-01T08:00:06.058Z,9092.00
2023-05-01T08:01:06.058Z,9104.00
2023-05-01T08:02:06.077Z,9164.00
2023-05-01T08:03:06.124Z,9288.00
2023-05-01T08:04:06.249Z,9452.00
2023-05-01T08:05:05.994Z,9644.00
2023-05-01T08:06:06.090Z,9856.00
2023-05-01T08:07:05.966Z,10016.00
2023-05-01T08:08:05.971Z,10136.00
2023-05-01T08:09:05.938Z,10164.00
2023-05-01T08:10:05.929Z,10192.00
2023-05-01T08:11:05.949Z,10204.00
2023-05-01T08:12:05.935Z,10220.00
2023-05-01T08:13:05.921Z,10240.00
2023-05-01T08:14:05.899Z,10268.00
2023-05-01T08:15:05.871Z,10288.00
2023-05-01T08:16:05.903Z,10292.00
2023-05-01T08:17:05.851Z,10284.00
2023-05-01T08:18:06.206Z,10216.00
2023-05-01T08:19:05.827Z,10260.00
2023-05-01T08:20:05.814Z,10256.00
2023-05-01T08:21:05.826Z,10268.00
2023-05-01T08:22:05.786Z,10296.00
2023-05-01T08:23:05.796Z,10348.00
2023-05-01T08:24:05.789Z,10436.00
2023-05-01T08:25:05.759Z,10524.00
2023-05-01T08:26:05.759Z,10604.00
2023-05-01T08:27:05.751Z,10664.00
2023-05-01T08:28:05.757Z,10728.00
2023-05-01T08:29:05.726Z,10788.00
2023-05-01T08:30:05.693Z,10856.00
2023-05-01T08:31:05.721Z,10884.00
2023-05-01T08:32:05.710Z,10880.00
2023-05-01T08:33:05.787Z,10844.00
2023-05-01T08:34:05.659Z,10776.00
2023-05-01T08:35:05.643Z,10704.00
2023-05-01T08:36:05.644Z,10648.00
2023-05-01T08:37:05.659Z,10592.00
2023-05-01T08:38:05.607Z,10564.00
2023-05-01T08:39:05.638Z,10548.00
2023-05-01T08:40:05.594Z,10516.00
2023-05-01T08:41:05.584Z,10460.00
2023-05-01T08:42:05.685Z,10424.00
2023-05-01T08:43:05.569Z,10424.00
2023-05-01T08:44:05.576Z,10452.00
2023-05-01T08:45:05.547Z,10432.00
2023-05-01T08:46:05.534Z,10460.00
2023-05-01T08:47:05.717Z,10508.00
2023-05-01T08:48:05.596Z,10636.00
2023-05-01T08:49:05.491Z,10828.00
2023-05-01T08:50:05.503Z,11008.00
2023-05-01T08:51:05.509Z,11172.00
2023-05-01T08:52:05.463Z,11320.00
2023-05-01T08:53:05.453Z,11436.00
2023-05-01T08:54:05.420Z,11564.00
2023-05-01T08:55:05.439Z,11720.00
2023-05-01T08:56:05.436Z,11872.00
2023-05-01T08:57:05.393Z,12048.00
2023-05-01T08:58:05.398Z,12196.00
2023-05-01T08:59:05.406Z,12312.00
2023-05-01T09:00:05.378Z,12400.00
2023-05-01T09:01:05.371Z,12480.00
2023-05-01T09:02:05.595Z,12524.00
2023-05-01T09:03:05.808Z,12392.00
2023-05-01T09:04:05.369Z,12388.00
2023-05-01T09:05:05.348Z,12472.00
2023-05-01T09:06:05.383Z,12584.00
2023-05-01T09:07:05.294Z,12824.00
2023-05-01T09:08:05.657Z,13108.00
2023-05-01T09:09:05.278Z,13116.00
2023-05-01T09:10:05.245Z,12976.00
2023-05-01T09:11:05.255Z,13056.00
2023-05-01T09:12:05.252Z,13120.00
2023-05-01T09:13:05.216Z,13152.00
2023-05-01T09:14:05.206Z,13164.00
2023-05-01T09:15:05.220Z,13180.00
2023-05-01T09:16:05.260Z,13292.00
2023-05-01T09:17:05.160Z,13524.00
2023-05-01T09:18:05.223Z,13352.00
2023-05-01T09:19:05.154Z,13324.00
2023-05-01T09:20:05.151Z,13496.00
2023-05-01T09:21:05.123Z,13436.00
2023-05-01T09:22:05.124Z,13464.00
2023-05-01T09:23:05.132Z,13724.00
2023-05-01T09:24:05.169Z,13860.00
2023-05-01T09:25:05.112Z,13936.00
2023-05-01T09:26:05.068Z,13936.00
2023-05-01T09:27:05.080Z,13916.00
2023-05-01T09:28:05.054Z,13984.00
2023-05-01T09:29:05.033Z,14004.00
2023-05-01T09:30:05.174Z,13936.00
2023-05-01T09:31:05.062Z,13912.00
2023-05-01T09:32:05.048Z,13836.00
2023-05-01T09:33:05.082Z,14004.00
2023-05-01T09:34:05.079Z,14136.00
2023-05-01T09:35:04.990Z,14120.00
2023-05-01T09:36:04.979Z,14108.00
2023-05-01T09:37:04.958Z,13948.00
2023-05-01T09:38:04.943Z,13724.00
2023-05-01T09:39:04.946Z,13628.00
2023-05-01T09:40:04.960Z,13624.00
2023-05-01T09:41:04.914Z,13568.00
2023-05-01T09:42:04.897Z,13708.00
2023-05-01T09:43:04.871Z,13920.00
2023-05-01T09:44:04.872Z,14264.00
2023-05-01T09:45:04.879Z,14220.00
2023-05-01T09:46:04.942Z,14344.00
2023-05-01T09:47:04.837Z,14488.00
2023-05-01T09:48:04.964Z,14928.00
2023-05-01T09:49:04.826Z,14944.00
2023-05-01T09:50:04.807Z,14960.00
2023-05-01T09:51:04.785Z,15060.00
2023-05-01T09:52:04.773Z,14916.00
2023-05-01T09:53:04.899Z,14948.00
2023-05-01T09:54:04.773Z,15200.00
2023-05-01T09:55:04.745Z,15512.00
2023-05-01T09:56:04.735Z,15420.00
2023-05-01T09:57:04.714Z,15648.00
2023-05-01T09:58:04.701Z,15880.00
2023-05-01T09:59:04.710Z,16060.00
2023-05-01T10:00:05.138Z,15960.00
2023-05-01T10:01:04.768Z,15980.00
2023-05-01T10:02:04.730Z,16188.00
2023-05-01T10:03:05.878Z,16152.00
2023-05-01T10:04:04.683Z,16320.00
2023-05-01T10:05:04.646Z,16608.00
2023-05-01T10:06:04.702Z,16608.00
2023-05-01T10:07:04.688Z,16300.00
2023-05-01T10:08:04.624Z,16324.00
2023-05-01T10:09:04.619Z,16340.00
2023-05-01T10:10:04.793Z,16408.00
2023-05-01T10:11:04.562Z,16476.00
2023-05-01T10:12:04.632Z,16800.00
2023-05-01T10:13:04.568Z,16992.00
2023-05-01T10:14:04.570Z,16388.00
2023-05-01T10:15:13.733Z,16400.00
2023-05-01T10:16:05.510Z,16132.00
2023-05-01T10:17:04.523Z,15892.00
2023-05-01T10:18:04.518Z,15820.00
2023-05-01T10:19:04.643Z,15784.00
2023-05-01T10:20:04.506Z,15788.00
2023-05-01T10:21:04.509Z,15804.00
2023-05-01T10:22:04.476Z,15780.00
2023-05-01T10:23:04.478Z,15868.00
2023-05-01T10:24:04.423Z,15984.00
2023-05-01T10:25:04.446Z,16040.00
2023-05-01T10:26:05.246Z,15860.00
2023-05-01T10:27:04.417Z,16036.00
2023-05-01T10:28:04.419Z,15940.00
2023-05-01T10:29:04.377Z,15948.00
2023-05-01T10:30:04.377Z,15952.00
2023-05-01T10:31:04.401Z,15440.00
2023-05-01T10:32:04.467Z,15636.00
2023-05-01T10:33:04.367Z,15556.00
2023-05-01T10:34:04.308Z,15264.00
2023-05-01T10:35:04.313Z,15372.00
2023-05-01T10:36:04.387Z,15420.00
2023-05-01T10:37:04.297Z,15384.00
2023-05-01T10:38:04.689Z,15444.00
2023-05-01T10:39:04.296Z,15128.00
2023-05-01T10:40:04.257Z,15260.00
2023-05-01T10:41:04.267Z,14796.00
2023-05-01T10:42:04.254Z,14644.00
2023-05-01T10:43:04.236Z,14508.00
2023-05-01T10:44:04.217Z,14360.00
2023-05-01T10:45:04.230Z,14268.00
2023-05-01T10:46:04.256Z,14348.00
2023-05-01T10:47:04.187Z,14292.00
2023-05-01T10:48:04.238Z,14508.00
2023-05-01T10:49:04.162Z,14796.00
2023-05-01T10:50:04.162Z,16064.00
2023-05-01T10:51:04.162Z,16576.00
2023-05-01T10:52:04.165Z,16704.00
2023-05-01T10:53:04.104Z,16640.00
2023-05-01T10:54:04.113Z,16576.00
2023-05-01T10:55:04.095Z,16512.00
2023-05-01T10:56:04.098Z,16448.00
2023-05-01T10:57:04.091Z,16224.00
2023-05-01T10:58:04.056Z,16132.00
2023-05-01T10:59:04.026Z,15136.00
2023-05-01T11:00:04.038Z,14884.00
2023-05-01T11:01:04.021Z,14888.00
2023-05-01T11:02:04.055Z,14924.00
2023-05-01T11:03:04.060Z,14964.00
2023-05-01T11:04:03.989Z,14852.00
2023-05-01T11:05:04.004Z,14728.00
2023-05-01T11:06:04.112Z,14608.00
2023-05-01T11:07:04.011Z,14720.00
2023-05-01T11:08:03.964Z,14628.00
2023-05-01T11:09:03.917Z,14388.00
2023-05-01T11:10:03.938Z,13668.00
2023-05-01T11:11:03.905Z,13164.00
2023-05-01T11:12:03.919Z,12756.00
2023-05-01T11:13:03.885Z,12516.00
2023-05-01T11:14:03.911Z,12416.00
2023-05-01T11:15:03.854Z,12360.00
2023-05-01T11:16:03.969Z,12244.00
2023-05-01T11:17:03.841Z,12040.00
2023-05-01T11:18:03.987Z,11736.00
2023-05-01T11:19:03.833Z,11372.00
2023-05-01T11:20:03.817Z,11052.00
2023-05-01T11:21:03.788Z,10860.00
2023-05-01T11:22:03.788Z,10828.00
2023-05-01T11:23:03.754Z,10900.00
2023-05-01T11:24:03.809Z,11028.00
2023-05-01T11:25:03.756Z,11128.00
2023-05-01T11:26:03.737Z,11128.00
2023-05-01T11:27:03.731Z,11032.00
2023-05-01T11:28:03.796Z,10848.00
2023-05-01T11:29:03.728Z,10616.00
2023-05-01T11:30:03.706Z,10436.00
2023-05-01T11:31:03.701Z,10376.00
2023-05-01T11:32:03.696Z,10444.00
2023-05-01T11:33:03.701Z,10516.00
2023-05-01T11:34:03.646Z,10572.00
2023-05-01T11:35:03.639Z,10676.00
2023-05-01T11:36:03.632Z,10828.00
2023-05-01T11:37:03.624Z,10968.00
2023-05-01T11:38:03.624Z,11076.00
2023-05-01T11:39:03.586Z,11204.00
2023-05-01T11:40:03.613Z,11460.00
2023-05-01T11:41:03.622Z,11784.00
2023-05-01T11:42:03.656Z,12064.00
2023-05-01T11:43:03.575Z,12332.00
2023-05-01T11:44:03.561Z,12600.00
2023-05-01T11:45:03.542Z,12812.00
2023-05-01T11:46:03.624Z,12912.00
2023-05-01T11:47:03.567Z,12920.00
2023-05-01T11:48:04.532Z,12900.00
2023-05-01T11:49:03.521Z,12876.00
2023-05-01T11:50:03.470Z,12844.00
2023-05-01T11:51:03.498Z,12792.00
2023-05-01T11:52:03.474Z,12736.00
2023-05-01T11:53:03.456Z,12724.00
2023-05-01T11:54:03.470Z,12796.00
2023-05-01T11:55:03.737Z,12964.00
2023-05-01T11:56:06.888Z,13212.00
2023-05-01T11:57:04.411Z,13476.00
2023-05-01T11:58:03.389Z,13688.00
2023-05-01T11:59:03.395Z,13864.00
2023-05-01T12:00:03.359Z,14004.00
2023-05-01T12:01:03.410Z,14100.00
2023-05-01T12:02:03.397Z,14100.00
2023-05-01T12:03:03.531Z,13980.00
2023-05-01T12:04:03.432Z,13772.00
2023-05-01T12:05:03.369Z,13508.00
2023-05-01T12:06:03.368Z,13240.00
2023-05-01T12:07:03.298Z,12976.00
2023-05-01T12:08:03.297Z,12736.00
2023-05-01T12:09:03.259Z,12512.00
2023-05-01T12:10:03.245Z,12336.00
2023-05-01T12:11:03.287Z,12252.00
2023-05-01T12:12:03.296Z,12252.00
2023-05-01T12:13:03.231Z,12296.00
2023-05-01T12:14:03.229Z,12356.00
2023-05-01T12:15:03.211Z,12412.00
2023-05-01T12:16:03.227Z,12452.00
2023-05-01T12:17:03.238Z,12492.00
2023-05-01T12:18:03.233Z,12500.00
2023-05-01T12:19:03.160Z,12484.00
2023-05-01T12:20:03.132Z,12476.00
2023-05-01T12:21:03.255Z,12472.00